createdAt,value
2018-04-14T00:00:39.035Z,99.99
2018-04-14T00:01:39.033Z,99.99
2018-04-14T00:02:39.041Z,99.99
2018-04-14T00:03:39.030Z,99.99
2018-04-14T00:04:39.028Z,99.99
2018-04-14T00:05:39.024Z,99.99
2018-04-14T00:06:39.027Z,99.99
2018-04-14T00:07:39.023Z,99.99
2018-04-14T00:08:39.022Z,99.99
2018-04-14T00:09:39.020Z,99.99
2018-04-14T00:10:39.024Z,99.99
2018-04-14T00:11:39.015Z,99.99
2018-04-14T00:12:39.015Z,99.99
2018-04-14T00:13:39.012Z,99.99
2018-04-14T00:14:39.009Z,99.99
2018-04-14T00:15:39.008Z,99.99
2018-04-14T00:16:39.010Z,99.99
2018-04-14T00:17:39.005Z,99.99
2018-04-14T00:18:39.007Z,99.99
2018-04-14T00:19:39.005Z,99.99
2018-04-14T00:20:38.999Z,99.99
2018-04-14T00:21:38.998Z,99.99
2018-04-14T00:22:38.998Z,99.99
2018-04-14T00:23:38.994Z,99.99
2018-04-14T00:24:38.992Z,99.99
2018-04-14T00:25:38.991Z,99.99
2018-04-14T00:26:38.991Z,99.99
2018-04-14T00:27:38.987Z,99.99
2018-04-14T00:28:38.988Z,99.99
2018-04-14T00:29:38.984Z,99.99
2018-04-14T00:30:38.982Z,99.99
2018-04-14T00:31:38.983Z,99.99
2018-04-14T00:32:38.979Z,99.99
2018-04-14T00:33:38.978Z,99.99
2018-04-14T00:34:38.975Z,99.99
2018-04-14T00:35:38.975Z,99.99
2018-04-14T00:36:38.972Z,99.99
2018-04-14T00:37:38.978Z,99.99
2018-04-14T00:38:38.976Z,99.99
2018-04-14T00:39:39.020Z,99.99
2018-04-14T00:40:38.964Z,99.99
2018-04-14T00:41:38.966Z,99.99
2018-04-14T00:42:38.970Z,99.99
2018-04-14T00:43:38.958Z,99.99
2018-04-14T00:44:38.958Z,99.99
2018-04-14T00:45:38.960Z,99.99
2018-04-14T00:46:38.958Z,99.99
2018-04-14T00:47:38.951Z,99.99
2018-04-14T00:48:38.951Z,99.99
2018-04-14T00:49:38.950Z,99.99
2018-04-14T00:50:38.946Z,99.99
2018-04-14T00:51:38.944Z,99.99
2018-04-14T00:52:38.944Z,99.99
2018-04-14T00:53:38.944Z,99.99
2018-04-14T00:54:38.943Z,99.99
2018-04-14T00:55:38.939Z,99.99
2018-04-14T00:56:38.937Z,99.99
2018-04-14T00:57:38.933Z,99.99
2018-04-14T00:58:38.937Z,99.99
2018-04-14T00:59:38.934Z,99.99
2018-04-14T01:00:38.928Z,99.99
2018-04-14T01:01:38.929Z,99.99
2018-04-14T01:02:38.927Z,99.99
2018-04-14T01:03:38.925Z,99.99
2018-04-14T01:04:38.924Z,99.99
2018-04-14T01:05:38.922Z,99.99
2018-04-14T01:06:38.923Z,99.99
2018-04-14T01:07:38.919Z,99.99
2018-04-14T01:08:38.917Z,99.99
2018-04-14T01:09:38.916Z,99.99
2018-04-14T01:10:38.912Z,99.99
2018-04-14T01:11:38.911Z,99.99
2018-04-14T01:12:38.910Z,99.99
2018-04-14T01:13:40.751Z,99.99
2018-04-14T01:14:38.912Z,99.99
2018-04-14T01:15:38.905Z,99.99
2018-04-14T01:16:38.907Z,99.99
2018-04-14T01:17:38.904Z,99.99
2018-04-14T01:18:38.903Z,99.99
2018-04-14T01:19:38.904Z,99.99
2018-04-14T01:20:38.896Z,99.99
2018-04-14T01:21:38.899Z,99.99
2018-04-14T01:22:38.912Z,99.99
2018-04-14T01:23:38.893Z,99.99
2018-04-14T01:24:38.891Z,99.99
2018-04-14T01:25:38.888Z,99.99
2018-04-14T01:26:38.887Z,99.99
2018-04-14T01:27:38.884Z,99.99
2018-04-14T01:28:38.883Z,99.99
2018-04-14T01:29:38.881Z,99.99
2018-04-14T01:30:38.880Z,99.99
2018-04-14T01:31:38.884Z,99.99
2018-04-14T01:32:38.877Z,99.99
2018-04-14T01:33:38.875Z,99.99
2018-04-14T01:34:38.874Z,99.99
2018-04-14T01:35:38.871Z,99.99
2018-04-14T01:36:38.870Z,99.99
2018-04-14T01:37:38.869Z,99.99
2018-04-14T01:38:38.871Z,99.99
2018-04-14T01:39:38.864Z,99.99
2018-04-14T01:40:38.863Z,99.99
2018-04-14T01:41:38.864Z,99.99
2018-04-14T01:42:38.865Z,99.99
2018-04-14T01:43:38.857Z,99.99
2018-04-14T01:44:38.857Z,99.99
2018-04-14T01:45:38.856Z,99.99
2018-04-14T01:46:38.854Z,99.99
2018-04-14T01:47:38.849Z,99.99
2018-04-14T01:48:38.852Z,99.99
2018-04-14T01:49:38.850Z,99.99
2018-04-14T01:50:38.847Z,99.99
2018-04-14T01:51:38.842Z,99.99
2018-04-14T01:52:38.854Z,99.99
2018-04-14T01:53:38.839Z,99.99
2018-04-14T01:54:38.838Z,99.99
2018-04-14T01:55:38.836Z,99.99
2018-04-14T01:56:38.833Z,99.99
2018-04-14T01:57:38.834Z,99.99
2018-04-14T01:58:38.830Z,99.99
2018-04-14T01:59:38.835Z,99.99
2018-04-14T02:00:38.826Z,99.99
2018-04-14T02:01:40.749Z,99.99
2018-04-14T02:02:38.836Z,99.99
2018-04-14T02:03:38.821Z,99.99
2018-04-14T02:04:38.821Z,99.99
2018-04-14T02:05:38.817Z,99.99
2018-04-14T02:06:38.817Z,99.99
2018-04-14T02:07:38.813Z,99.99
2018-04-14T02:08:38.813Z,99.99
2018-04-14T02:09:38.810Z,99.99
2018-04-14T02:10:38.811Z,99.99
2018-04-14T02:11:38.805Z,99.99
2018-04-14T02:12:38.803Z,99.99
2018-04-14T02:13:38.806Z,99.99
2018-04-14T02:14:38.806Z,99.99
2018-04-14T02:15:38.804Z,99.99
2018-04-14T02:16:38.796Z,99.99
2018-04-14T02:17:38.795Z,99.99
2018-04-14T02:18:38.796Z,99.99
2018-04-14T02:19:38.792Z,99.99
2018-04-14T02:20:38.797Z,99.99
2018-04-14T02:21:38.787Z,99.99
2018-04-14T02:22:38.786Z,99.99
2018-04-14T02:23:38.797Z,99.99
2018-04-14T02:24:38.788Z,99.99
2018-04-14T02:25:38.780Z,99.99
2018-04-14T02:26:38.777Z,99.99
2018-04-14T02:27:38.778Z,99.99
2018-04-14T02:28:38.776Z,99.99
2018-04-14T02:29:38.774Z,99.99
2018-04-14T02:30:38.781Z,99.99
2018-04-14T02:31:38.771Z,99.99
2018-04-14T02:32:38.770Z,99.99
2018-04-14T02:33:38.768Z,99.99
2018-04-14T02:34:38.766Z,99.99
2018-04-14T02:35:38.764Z,99.99
2018-04-14T02:36:38.762Z,99.99
2018-04-14T02:37:38.759Z,99.99
2018-04-14T02:38:38.761Z,99.99
2018-04-14T02:39:38.756Z,99.99
2018-04-14T02:40:38.754Z,99.99
2018-04-14T02:41:38.753Z,99.99
2018-04-14T02:42:38.750Z,99.99
2018-04-14T02:43:38.749Z,99.99
2018-04-14T02:44:38.746Z,99.99
2018-04-14T02:45:38.764Z,99.99
2018-04-14T02:46:38.743Z,99.99
2018-04-14T02:47:38.743Z,99.99
2018-04-14T02:48:38.747Z,99.99
2018-04-14T02:49:38.736Z,99.99
2018-04-14T02:50:38.736Z,99.99
2018-04-14T02:51:38.732Z,99.99
2018-04-14T02:52:38.738Z,99.99
2018-04-14T02:53:38.737Z,99.99
2018-04-14T02:54:38.728Z,99.99
2018-04-14T02:55:38.726Z,99.99
2018-04-14T02:56:38.726Z,99.99
2018-04-14T02:57:38.725Z,99.99
2018-04-14T02:58:38.722Z,99.99
2018-04-14T02:59:38.717Z,99.99
2018-04-14T03:00:38.716Z,99.99
2018-04-14T03:01:38.715Z,99.99
2018-04-14T03:02:38.713Z,99.99
2018-04-14T03:03:38.717Z,99.99
2018-04-14T03:04:38.714Z,99.99
2018-04-14T03:05:38.709Z,99.99
2018-04-14T03:06:38.706Z,99.99
2018-04-14T03:07:38.703Z,99.99
2018-04-14T03:08:38.699Z,99.99
2018-04-14T03:09:38.701Z,99.99
2018-04-14T03:10:38.698Z,99.99
2018-04-14T03:11:38.698Z,99.99
2018-04-14T03:12:38.695Z,99.99
2018-04-14T03:13:38.690Z,99.99
2018-04-14T03:14:38.690Z,99.99
2018-04-14T03:15:38.685Z,99.99
2018-04-14T03:16:38.692Z,99.99
2018-04-14T03:17:38.684Z,99.99
2018-04-14T03:18:38.683Z,99.99
2018-04-14T03:19:38.679Z,99.99
2018-04-14T03:20:38.679Z,99.99
2018-04-14T03:21:38.675Z,99.99
2018-04-14T03:22:38.674Z,99.99
2018-04-14T03:23:38.673Z,99.99
2018-04-14T03:24:38.672Z,99.99
2018-04-14T03:25:38.668Z,99.99
2018-04-14T03:26:38.665Z,99.99
2018-04-14T03:27:38.668Z,99.99
2018-04-14T03:28:38.663Z,99.99
2018-04-14T03:29:38.661Z,99.99
2018-04-14T03:30:38.660Z,99.99
2018-04-14T03:31:38.657Z,99.99
2018-04-14T03:32:38.653Z,99.99
2018-04-14T03:33:38.651Z,99.99
2018-04-14T03:34:38.655Z,99.99
2018-04-14T03:35:38.651Z,99.99
2018-04-14T03:36:38.646Z,99.99
2018-04-14T03:37:38.642Z,99.99
2018-04-14T03:38:38.647Z,99.99
2018-04-14T03:39:38.640Z,99.99
2018-04-14T03:40:38.636Z,99.99
2018-04-14T03:41:38.663Z,99.99
2018-04-14T03:42:38.636Z,99.99
2018-04-14T03:43:38.634Z,99.99
2018-04-14T03:44:38.680Z,99.99
2018-04-14T03:45:38.636Z,99.99
2018-04-14T03:46:38.627Z,99.99
2018-04-14T03:47:38.625Z,99.99
2018-04-14T03:48:38.621Z,99.99
2018-04-14T03:49:38.621Z,99.99
2018-04-14T03:50:38.617Z,99.99
2018-04-14T03:51:38.616Z,99.99
2018-04-14T03:52:38.637Z,99.99
2018-04-14T03:53:38.614Z,99.99
2018-04-14T03:54:38.609Z,99.99
2018-04-14T03:55:38.607Z,99.99
2018-04-14T03:56:38.654Z,99.99
2018-04-14T03:57:38.609Z,99.99
2018-04-14T03:58:38.601Z,99.99
2018-04-14T03:59:38.626Z,99.99
2018-04-14T04:00:38.597Z,99.99
2018-04-14T04:01:38.594Z,99.99
2018-04-14T04:02:38.597Z,99.99
2018-04-14T04:03:38.590Z,99.99
2018-04-14T04:04:38.590Z,99.99
2018-04-14T04:05:38.587Z,99.99
2018-04-14T04:06:38.584Z,99.99
2018-04-14T04:07:38.581Z,99.99
2018-04-14T04:08:38.580Z,99.99
2018-04-14T04:09:38.577Z,99.99
2018-04-14T04:10:38.581Z,99.99
2018-04-14T04:11:38.572Z,99.99
2018-04-14T04:12:38.571Z,99.99
2018-04-14T04:13:38.571Z,99.99
2018-04-14T04:14:38.567Z,99.99
2018-04-14T04:15:38.580Z,99.99
2018-04-14T04:16:38.561Z,99.99
2018-04-14T04:17:38.560Z,99.99
2018-04-14T04:18:38.556Z,99.99
2018-04-14T04:19:38.555Z,99.99
2018-04-14T04:20:38.558Z,99.99
2018-04-14T04:21:38.554Z,99.99
2018-04-14T04:22:38.595Z,99.99
2018-04-14T04:23:38.545Z,99.99
2018-04-14T04:24:38.549Z,99.99
2018-04-14T04:25:38.542Z,99.99
2018-04-14T04:26:38.541Z,99.99
2018-04-14T04:27:38.537Z,99.99
2018-04-14T04:28:38.537Z,99.99
2018-04-14T04:29:38.532Z,99.99
2018-04-14T04:30:38.559Z,99.99
2018-04-14T04:31:38.526Z,99.99
2018-04-14T04:32:38.526Z,99.99
2018-04-14T04:33:38.524Z,99.99
2018-04-14T04:34:38.524Z,99.99
2018-04-14T04:35:38.558Z,99.99
2018-04-14T04:36:38.523Z,99.99
2018-04-14T04:37:38.517Z,99.99
2018-04-14T04:38:38.511Z,99.99
2018-04-14T04:39:38.520Z,99.99
2018-04-14T04:40:38.510Z,99.99
2018-04-14T04:41:38.511Z,99.99
2018-04-14T04:42:38.505Z,99.99
2018-04-14T04:43:38.502Z,99.99
2018-04-14T04:44:38.506Z,99.99
2018-04-14T04:45:38.499Z,99.99
2018-04-14T04:46:38.498Z,99.99
2018-04-14T04:47:38.494Z,99.99
2018-04-14T04:48:38.519Z,99.99
2018-04-14T04:49:38.515Z,99.99
2018-04-14T04:50:38.487Z,99.99
2018-04-14T04:51:38.487Z,99.99
2018-04-14T04:52:38.481Z,99.99
2018-04-14T04:53:38.537Z,99.99
2018-04-14T04:54:38.481Z,99.99
2018-04-14T04:55:38.476Z,99.99
2018-04-14T04:56:38.514Z,99.99
2018-04-14T04:57:38.471Z,99.99
2018-04-14T04:58:38.614Z,99.99
2018-04-14T04:59:38.466Z,99.99
2018-04-14T05:00:38.558Z,99.99
2018-04-14T05:01:38.464Z,99.99
2018-04-14T05:02:38.474Z,99.99
2018-04-14T05:03:38.456Z,99.99
2018-04-14T05:04:38.455Z,99.99
2018-04-14T05:05:38.455Z,99.99
2018-04-14T05:06:38.454Z,99.99
2018-04-14T05:07:38.450Z,99.99
2018-04-14T05:08:38.447Z,99.99
2018-04-14T05:09:38.447Z,99.99
2018-04-14T05:10:38.477Z,99.99
2018-04-14T05:11:38.442Z,99.99
2018-04-14T05:12:38.440Z,99.99
2018-04-14T05:13:38.440Z,99.99
2018-04-14T05:14:38.483Z,99.99
2018-04-14T05:15:38.434Z,99.99
2018-04-14T05:16:38.430Z,99.99
2018-04-14T05:17:38.431Z,99.99
2018-04-14T05:18:38.428Z,99.99
2018-04-14T05:19:38.428Z,99.99
2018-04-14T05:20:38.424Z,99.99
2018-04-14T05:21:38.425Z,99.99
2018-04-14T05:22:38.422Z,99.99
2018-04-14T05:23:38.417Z,99.99
2018-04-14T05:24:38.416Z,99.99
2018-04-14T05:25:38.412Z,99.99
2018-04-14T05:26:38.414Z,99.99
2018-04-14T05:27:38.414Z,99.99
2018-04-14T05:28:38.409Z,99.99
2018-04-14T05:29:38.517Z,99.99
2018-04-14T05:30:38.406Z,99.99
2018-04-14T05:31:38.402Z,99.99
2018-04-14T05:32:38.444Z,99.99
2018-04-14T05:33:38.441Z,99.99
2018-04-14T05:34:38.414Z,99.99
2018-04-14T05:35:38.396Z,99.99
2018-04-14T05:36:38.392Z,99.99
2018-04-14T05:37:38.387Z,99.99
2018-04-14T05:38:38.390Z,99.99
2018-04-14T05:39:38.385Z,99.99
2018-04-14T05:40:38.470Z,99.99
2018-04-14T05:41:38.383Z,99.99
2018-04-14T05:42:38.381Z,99.99
2018-04-14T05:43:38.379Z,99.99
2018-04-14T05:44:38.388Z,99.99
2018-04-14T05:45:38.374Z,99.99
2018-04-14T05:46:38.374Z,99.99
2018-04-14T05:47:38.370Z,99.99
2018-04-14T05:48:38.369Z,99.99
2018-04-14T05:49:38.368Z,99.99
2018-04-14T05:50:38.370Z,99.99
2018-04-14T05:51:38.367Z,99.99
2018-04-14T05:52:38.363Z,99.99
2018-04-14T05:53:38.362Z,99.99
2018-04-14T05:54:38.356Z,99.99
2018-04-14T05:55:38.360Z,99.99
2018-04-14T05:56:38.371Z,99.99
2018-04-14T05:57:38.354Z,99.99
2018-04-14T05:58:38.354Z,99.99
2018-04-14T05:59:38.351Z,99.99
2018-04-14T06:00:38.347Z,99.99
2018-04-14T06:01:38.349Z,99.99
2018-04-14T06:02:38.350Z,99.99
2018-04-14T06:03:38.400Z,99.99
2018-04-14T06:04:38.342Z,99.99
2018-04-14T06:05:38.341Z,99.99
2018-04-14T06:06:38.339Z,99.99
2018-04-14T06:07:38.416Z,99.99
2018-04-14T06:08:38.335Z,99.99
2018-04-14T06:09:38.335Z,99.99
2018-04-14T06:10:38.331Z,99.99
2018-04-14T06:11:38.330Z,99.99
2018-04-14T06:12:38.331Z,99.99
2018-04-14T06:13:38.330Z,99.99
2018-04-14T06:14:38.326Z,99.99
2018-04-14T06:15:38.323Z,99.99
2018-04-14T06:16:38.325Z,99.99
2018-04-14T06:17:38.320Z,97.66
2018-04-14T06:18:38.325Z,93.31
2018-04-14T06:19:38.317Z,90.16
2018-04-14T06:20:38.314Z,86.67
2018-04-14T06:21:38.320Z,83.65
2018-04-14T06:22:38.314Z,82.54
2018-04-14T06:23:38.310Z,81.02
2018-04-14T06:24:38.325Z,80.16
2018-04-14T06:25:38.308Z,79.72
2018-04-14T06:26:38.311Z,79.96
2018-04-14T06:27:38.308Z,79.10
2018-04-14T06:28:38.310Z,78.76
2018-04-14T06:29:38.307Z,78.19
2018-04-14T06:30:38.307Z,77.04
2018-04-14T06:31:38.305Z,76.50
2018-04-14T06:32:38.350Z,76.21
2018-04-14T06:33:38.310Z,76.21
2018-04-14T06:34:38.307Z,75.45
2018-04-14T06:35:38.309Z,74.97
2018-04-14T06:36:38.312Z,76.08
2018-04-14T06:37:38.313Z,76.12
2018-04-14T06:38:38.312Z,76.31
2018-04-14T06:39:38.314Z,76.50
2018-04-14T06:40:38.320Z,76.21
2018-04-14T06:41:38.333Z,76.02
2018-04-14T06:42:38.319Z,76.40
2018-04-14T06:43:38.319Z,76.46
2018-04-14T06:44:38.322Z,76.02
2018-04-14T06:45:38.326Z,76.50
2018-04-14T06:46:38.327Z,75.73
2018-04-14T06:47:38.329Z,75.54
2018-04-14T06:48:38.332Z,74.11
2018-04-14T06:49:38.336Z,74.05
2018-04-14T06:50:38.342Z,72.90
2018-04-14T06:51:38.342Z,73.13
2018-04-14T06:52:38.346Z,71.98
2018-04-14T06:53:38.347Z,72.27
2018-04-14T06:54:38.352Z,72.55
2018-04-14T06:55:38.354Z,71.78
2018-04-14T06:56:38.365Z,71.25
2018-04-14T06:57:38.364Z,70.09
2018-04-14T06:58:38.368Z,69.93
2018-04-14T06:59:38.372Z,68.59
2018-04-14T07:00:38.379Z,69.33
2018-04-14T07:01:38.380Z,69.84
2018-04-14T07:02:38.392Z,69.33
2018-04-14T07:03:38.391Z,69.26
2018-04-14T07:04:38.442Z,68.56
2018-04-14T07:05:38.402Z,68.88
2018-04-14T07:06:38.406Z,69.33
2018-04-14T07:07:38.410Z,69.42
2018-04-14T07:08:39.329Z,68.69
2018-04-14T07:09:38.434Z,67.29
2018-04-14T07:10:38.427Z,67.00
2018-04-14T07:11:38.428Z,67.00
2018-04-14T07:12:38.434Z,66.77
2018-04-14T07:13:38.438Z,67.47
2018-04-14T07:14:38.449Z,65.65
2018-04-14T07:15:38.450Z,65.36
2018-04-14T07:16:38.459Z,65.84
2018-04-14T07:17:38.462Z,66.26
2018-04-14T07:18:38.469Z,65.78
2018-04-14T07:19:38.472Z,65.49
2018-04-14T07:20:38.493Z,65.46
2018-04-14T07:21:38.485Z,66.58
2018-04-14T07:22:38.492Z,67.29
2018-04-14T07:23:38.506Z,66.77
2018-04-14T07:24:38.503Z,67.73
2018-04-14T07:25:38.508Z,66.90
2018-04-14T07:26:38.516Z,66.49
2018-04-14T07:27:38.520Z,66.96
2018-04-14T07:28:38.528Z,67.25
2018-04-14T07:29:38.540Z,67.06
2018-04-14T07:30:38.543Z,67.92
2018-04-14T07:31:38.546Z,67.54
2018-04-14T07:32:38.551Z,67.44
2018-04-14T07:33:38.561Z,67.16
2018-04-14T07:34:38.585Z,67.00
2018-04-14T07:35:38.572Z,66.61
2018-04-14T07:36:38.575Z,65.49
2018-04-14T07:37:38.632Z,64.09
2018-04-14T07:38:38.590Z,63.70
2018-04-14T07:39:38.597Z,64.28
2018-04-14T07:40:38.602Z,63.70
2018-04-14T07:41:38.611Z,63.79
2018-04-14T07:42:38.619Z,63.70
2018-04-14T07:43:38.643Z,63.76
2018-04-14T07:44:38.631Z,63.92
2018-04-14T07:45:38.641Z,63.09
2018-04-14T07:46:38.648Z,62.80
2018-04-14T07:47:38.651Z,62.38
2018-04-14T07:48:38.656Z,63.12
2018-04-14T07:49:38.668Z,63.51
2018-04-14T07:50:38.674Z,63.64
2018-04-14T07:51:38.714Z,63.25
2018-04-14T07:52:38.689Z,64.47
2018-04-14T07:53:38.716Z,64.69
2018-04-14T07:54:38.703Z,64.09
2018-04-14T07:55:38.710Z,64.66
2018-04-14T07:56:38.718Z,64.98
2018-04-14T07:57:38.746Z,65.81
2018-04-14T07:58:38.733Z,67.44
2018-04-14T07:59:38.740Z,67.06
2018-04-14T08:00:38.750Z,67.19
2018-04-14T08:01:38.759Z,67.44
2018-04-14T08:02:38.786Z,69.13
2018-04-14T08:03:38.778Z,70.29
2018-04-14T08:04:38.791Z,70.38
2018-04-14T08:05:38.813Z,70.44
2018-04-14T08:06:38.800Z,71.25
2018-04-14T08:07:38.813Z,71.25
2018-04-14T08:08:38.828Z,71.53
2018-04-14T08:09:38.830Z,70.76
2018-04-14T08:10:38.836Z,70.80
2018-04-14T08:11:38.859Z,71.66
2018-04-14T08:12:38.854Z,71.37
2018-04-14T08:13:38.864Z,70.51
2018-04-14T08:14:38.877Z,69.84
2018-04-14T08:15:38.885Z,70.70
2018-04-14T08:16:38.891Z,70.13
2018-04-14T08:17:38.902Z,69.46
2018-04-14T08:18:38.911Z,69.84
2018-04-14T08:19:38.916Z,69.17
2018-04-14T08:20:38.942Z,69.71
2018-04-14T08:21:38.947Z,70.38
2018-04-14T08:22:38.944Z,69.81
2018-04-14T08:23:38.949Z,70.38
2018-04-14T08:24:38.997Z,69.87
2018-04-14T08:25:38.964Z,70.67
2018-04-14T08:26:38.984Z,70.76
2018-04-14T08:27:39.009Z,70.86
2018-04-14T08:28:39.016Z,70.19
2018-04-14T08:29:39.023Z,70.19
2018-04-14T08:30:39.033Z,69.90
2018-04-14T08:31:39.038Z,68.66
2018-04-14T08:32:39.048Z,68.85
2018-04-14T08:33:39.060Z,68.75
2018-04-14T08:34:39.063Z,69.65
2018-04-14T08:35:39.069Z,69.36
2018-04-14T08:36:39.074Z,69.93
2018-04-14T08:37:39.079Z,69.74
2018-04-14T08:38:39.088Z,69.17
2018-04-14T08:39:39.076Z,69.84
2018-04-14T08:40:39.079Z,68.98
2018-04-14T08:41:39.079Z,69.07
2018-04-14T08:42:39.085Z,69.36
2018-04-14T08:43:39.091Z,69.26
2018-04-14T08:44:39.092Z,68.79
2018-04-14T08:45:39.099Z,69.40
2018-04-14T08:46:39.104Z,68.82
2018-04-14T08:47:39.110Z,68.79
2018-04-14T08:48:39.115Z,68.98
2018-04-14T08:49:39.120Z,68.98
2018-04-14T08:50:39.128Z,69.84
2018-04-14T08:51:39.135Z,69.36
2018-04-14T08:52:39.139Z,69.46
2018-04-14T08:53:39.144Z,68.98
2018-04-14T08:54:39.150Z,68.12
2018-04-14T08:55:39.155Z,68.88
2018-04-14T08:56:39.162Z,68.88
2018-04-14T08:57:39.169Z,68.50
2018-04-14T08:58:39.178Z,68.88
2018-04-14T08:59:39.176Z,68.88
2018-04-14T09:00:39.187Z,68.88
2018-04-14T09:01:39.189Z,68.30
2018-04-14T09:02:39.196Z,68.69
2018-04-14T09:03:39.200Z,68.88
2018-04-14T09:04:39.210Z,68.40
2018-04-14T09:05:39.212Z,68.30
2018-04-14T09:06:39.216Z,68.79
2018-04-14T09:07:39.228Z,68.12
2018-04-14T09:08:39.229Z,67.92
2018-04-14T09:09:39.236Z,68.69
2018-04-14T09:10:39.243Z,68.12
2018-04-14T09:11:39.245Z,68.98
2018-04-14T09:12:39.251Z,69.17
2018-04-14T09:13:39.259Z,69.42
2018-04-14T09:14:39.263Z,70.15
2018-04-14T09:15:39.266Z,71.69
2018-04-14T09:16:39.275Z,72.61
2018-04-14T09:17:39.295Z,73.09
2018-04-14T09:18:39.282Z,72.90
2018-04-14T09:19:39.286Z,73.76
2018-04-14T09:20:39.293Z,73.72
2018-04-14T09:21:39.296Z,73.54
2018-04-14T09:22:39.306Z,74.58
2018-04-14T09:23:39.309Z,74.30
2018-04-14T09:24:39.313Z,74.30
2018-04-14T09:25:39.332Z,74.45
2018-04-14T09:26:39.324Z,75.02
2018-04-14T09:27:39.335Z,75.41
2018-04-14T09:28:39.330Z,76.56
2018-04-14T09:29:39.338Z,76.56
2018-04-14T09:30:39.357Z,75.83
2018-04-14T09:31:39.352Z,75.16
2018-04-14T09:32:39.380Z,75.73
2018-04-14T09:33:39.358Z,75.73
2018-04-14T09:34:39.377Z,75.45
2018-04-14T09:35:39.366Z,75.35
2018-04-14T09:36:39.373Z,75.45
2018-04-14T09:37:39.376Z,74.20
2018-04-14T09:38:39.385Z,74.40
2018-04-14T09:39:39.392Z,75.35
2018-04-14T09:40:39.391Z,75.10
2018-04-14T09:41:39.396Z,74.82
2018-04-14T09:42:39.400Z,74.57
2018-04-14T09:43:39.406Z,73.70
2018-04-14T09:44:39.412Z,72.74
2018-04-14T09:45:39.414Z,73.13
2018-04-14T09:46:39.418Z,72.99
2018-04-14T09:47:39.422Z,73.13
2018-04-14T09:48:39.431Z,72.84
2018-04-14T09:49:39.435Z,73.13
2018-04-14T09:50:39.441Z,72.45
2018-04-14T09:51:39.451Z,72.74
2018-04-14T09:52:41.401Z,72.36
2018-04-14T09:53:39.457Z,70.73
2018-04-14T09:54:39.470Z,70.83
2018-04-14T09:55:39.464Z,70.83
2018-04-14T09:56:39.468Z,71.72
2018-04-14T09:57:39.490Z,71.34
2018-04-14T09:58:39.480Z,70.00
2018-04-14T09:59:39.484Z,70.09
2018-04-14T10:00:39.491Z,71.44
2018-04-14T10:01:39.497Z,71.21
2018-04-14T10:02:39.503Z,70.92
2018-04-14T10:03:39.506Z,71.40
2018-04-14T10:04:39.511Z,71.50
2018-04-14T10:05:39.517Z,72.11
2018-04-14T10:06:39.521Z,70.76
2018-04-14T10:07:39.529Z,69.26
2018-04-14T10:08:39.531Z,70.00
2018-04-14T10:09:39.533Z,69.26
2018-04-14T10:10:39.538Z,69.33
2018-04-14T10:11:39.545Z,70.96
2018-04-14T10:12:39.549Z,69.71
2018-04-14T10:13:39.555Z,70.19
2018-04-14T10:14:39.589Z,72.01
2018-04-14T10:15:39.565Z,70.51
2018-04-14T10:16:39.575Z,69.36
2018-04-14T10:17:39.574Z,68.50
2018-04-14T10:18:39.581Z,69.59
2018-04-14T10:19:39.585Z,69.01
2018-04-14T10:20:39.588Z,68.34
2018-04-14T10:21:39.594Z,68.47
2018-04-14T10:22:39.596Z,67.51
2018-04-14T10:23:39.603Z,67.22
2018-04-14T10:24:39.639Z,66.93
2018-04-14T10:25:39.613Z,65.72
2018-04-14T10:26:39.619Z,66.20
2018-04-14T10:27:39.622Z,64.66
2018-04-14T10:28:39.628Z,65.62
2018-04-14T10:29:39.631Z,65.66
2018-04-14T10:30:39.651Z,63.92
2018-04-14T10:31:39.645Z,63.92
2018-04-14T10:32:39.647Z,63.45
2018-04-14T10:33:39.652Z,64.40
2018-04-14T10:34:39.660Z,64.09
2018-04-14T10:35:39.667Z,64.56
2018-04-14T10:36:39.668Z,64.66
2018-04-14T10:37:39.681Z,64.66
2018-04-14T10:38:39.705Z,65.30
2018-04-14T10:39:39.687Z,64.92
2018-04-14T10:40:39.687Z,67.03
2018-04-14T10:41:39.695Z,66.55
2018-04-14T10:42:39.701Z,66.00
2018-04-14T10:43:39.709Z,64.18
2018-04-14T10:44:39.710Z,64.79
2018-04-14T10:45:39.716Z,65.75
2018-04-14T10:46:39.723Z,64.31
2018-04-14T10:47:39.738Z,62.41
2018-04-14T10:48:39.732Z,62.51
2018-04-14T10:49:39.739Z,62.41
2018-04-14T10:50:39.745Z,62.32
2018-04-14T10:51:39.748Z,63.67
2018-04-14T10:52:39.755Z,63.38
2018-04-14T10:53:39.763Z,63.57
2018-04-14T10:54:39.766Z,62.71
2018-04-14T10:55:39.770Z,63.22
2018-04-14T10:56:39.778Z,63.60
2018-04-14T10:57:39.785Z,60.75
2018-04-14T10:58:39.789Z,60.91
2018-04-14T10:59:39.793Z,60.17
2018-04-14T11:00:39.799Z,59.94
2018-04-14T11:01:39.805Z,59.56
2018-04-14T11:02:39.812Z,59.53
2018-04-14T11:03:39.816Z,62.06
2018-04-14T11:04:39.823Z,61.58
2018-04-14T11:05:39.829Z,61.13
2018-04-14T11:06:39.846Z,59.37
2018-04-14T11:07:39.838Z,58.89
2018-04-14T11:08:39.847Z,57.99
2018-04-14T11:09:39.848Z,58.67
2018-04-14T11:10:39.854Z,60.01
2018-04-14T11:11:39.859Z,59.37
2018-04-14T11:12:39.868Z,58.60
2018-04-14T11:13:39.873Z,57.45
2018-04-14T11:14:39.880Z,58.02
2018-04-14T11:15:39.886Z,59.72
2018-04-14T11:16:39.890Z,58.37
2018-04-14T11:17:39.895Z,58.73
2018-04-14T11:18:39.914Z,60.27
2018-04-14T11:19:39.910Z,60.01
2018-04-14T11:20:39.911Z,60.27
2018-04-14T11:21:39.919Z,60.37
2018-04-14T11:22:39.928Z,60.17
2018-04-14T11:23:39.929Z,60.56
2018-04-14T11:24:39.932Z,61.30
2018-04-14T11:25:39.942Z,62.35
2018-04-14T11:26:39.951Z,63.41
2018-04-14T11:27:39.951Z,61.97
2018-04-14T11:28:39.953Z,62.29
2018-04-14T11:29:39.966Z,60.24
2018-04-14T11:30:39.969Z,60.85
2018-04-14T11:31:40.029Z,61.04
2018-04-14T11:32:39.981Z,60.59
2018-04-14T11:33:39.984Z,59.24
2018-04-14T11:34:39.990Z,57.99
2018-04-14T11:35:39.997Z,59.24
2018-04-14T11:36:40.007Z,58.73
2018-04-14T11:37:40.018Z,60.59
2018-04-14T11:38:40.023Z,60.01
2018-04-14T11:39:40.016Z,59.34
2018-04-14T11:40:40.020Z,58.86
2018-04-14T11:41:40.027Z,59.72
2018-04-14T11:42:40.031Z,58.57
2018-04-14T11:43:40.037Z,59.37
2018-04-14T11:44:40.044Z,58.89
2018-04-14T11:45:40.050Z,57.92
2018-04-14T11:46:40.057Z,58.79
2018-04-14T11:47:40.059Z,58.60
2018-04-14T11:48:40.076Z,56.96
2018-04-14T11:49:40.085Z,56.48
2018-04-14T11:50:40.081Z,57.06
2018-04-14T11:51:40.086Z,56.77
2018-04-14T11:52:40.085Z,57.54
2018-04-14T11:53:40.092Z,57.60
2018-04-14T11:54:40.096Z,57.80
2018-04-14T11:55:40.103Z,58.57
2018-04-14T11:56:40.108Z,57.70
2018-04-14T11:57:40.115Z,58.15
2018-04-14T11:58:40.122Z,60.66
2018-04-14T11:59:40.124Z,59.99
2018-04-14T12:00:40.131Z,60.78
2018-04-14T12:01:40.138Z,61.26
2018-04-14T12:02:40.143Z,61.26
2018-04-14T12:03:40.178Z,60.21
2018-04-14T12:04:40.154Z,59.66
2018-04-14T12:05:40.163Z,58.60
2018-04-14T12:06:40.164Z,57.92
2018-04-14T12:07:40.170Z,57.45
2018-04-14T12:08:40.176Z,56.67
2018-04-14T12:09:40.186Z,57.83
2018-04-14T12:10:40.198Z,57.42
2018-04-14T12:11:40.193Z,58.09
2018-04-14T12:12:40.211Z,57.51
2018-04-14T12:13:40.204Z,57.45
2018-04-14T12:14:40.209Z,55.71
2018-04-14T12:15:40.216Z,55.16
2018-04-14T12:16:40.221Z,55.43
2018-04-14T12:17:40.224Z,55.81
2018-04-14T12:18:40.232Z,57.45
2018-04-14T12:19:40.239Z,55.23
2018-04-14T12:20:40.251Z,56.20
2018-04-14T12:21:40.249Z,57.06
2018-04-14T12:22:40.296Z,55.74
2018-04-14T12:23:40.260Z,54.87
2018-04-14T12:24:40.271Z,54.87
2018-04-14T12:25:40.276Z,54.97
2018-04-14T12:26:40.277Z,53.53
2018-04-14T12:27:40.283Z,54.97
2018-04-14T12:28:40.288Z,55.00
2018-04-14T12:29:40.293Z,54.80
2018-04-14T12:30:40.301Z,55.00
2018-04-14T12:31:40.306Z,54.87
2018-04-14T12:32:40.313Z,54.97
2018-04-14T12:33:40.315Z,55.83
2018-04-14T12:34:40.359Z,55.35
2018-04-14T12:35:40.331Z,55.35
2018-04-14T12:36:40.333Z,55.65
2018-04-14T12:37:40.340Z,55.77
2018-04-14T12:38:40.347Z,53.74
2018-04-14T12:39:40.358Z,52.78
2018-04-14T12:40:40.360Z,53.27
2018-04-14T12:41:40.364Z,53.36
2018-04-14T12:42:40.369Z,51.72
2018-04-14T12:43:40.376Z,51.62
2018-04-14T12:44:40.380Z,53.27
2018-04-14T12:45:40.385Z,53.84
2018-04-14T12:46:40.396Z,53.45
2018-04-14T12:47:40.399Z,53.17
2018-04-14T12:48:40.410Z,52.49
2018-04-14T12:49:40.415Z,53.43
2018-04-14T12:50:40.418Z,53.45
2018-04-14T12:51:40.423Z,52.97
2018-04-14T12:52:40.431Z,53.65